createdAt,value
2023-04-17T00:01:47.749Z,2.10
2023-04-17T00:04:18.407Z,1.67
2023-04-17T00:06:46.786Z,1.80
2023-04-17T00:09:15.177Z,1.90
2023-04-17T00:11:43.408Z,2.27
2023-04-17T00:14:11.694Z,2.27
2023-04-17T00:16:40.007Z,1.73
2023-04-17T00:19:08.382Z,1.83
2023-04-17T00:21:37.985Z,2.27
2023-04-17T00:24:06.402Z,1.83
2023-04-17T00:26:35.018Z,1.80
2023-04-17T00:29:03.411Z,1.50
2023-04-17T00:31:31.667Z,2.23
2023-04-17T00:34:01.427Z,2.23
2023-04-17T00:36:31.835Z,1.97
2023-04-17T00:39:01.589Z,2.00
2023-04-17T00:41:29.845Z,1.93
2023-04-17T00:43:58.067Z,2.30
2023-04-17T00:46:26.316Z,1.60
2023-04-17T00:48:54.602Z,2.20
2023-04-17T00:51:22.895Z,1.40
2023-04-17T00:53:51.134Z,1.63
2023-04-17T00:56:21.012Z,2.07
2023-04-17T00:58:49.260Z,2.47
2023-04-17T01:01:17.925Z,1.67
2023-04-17T01:03:46.386Z,2.00
2023-04-17T01:06:14.717Z,2.23
2023-04-17T01:08:43.390Z,2.47
2023-04-17T01:11:11.679Z,1.73
2023-04-17T01:13:47.286Z,2.10
2023-04-17T01:16:15.659Z,2.40
2023-04-17T01:18:43.975Z,2.13
2023-04-17T01:21:12.250Z,2.20
2023-04-17T01:23:44.540Z,2.10
2023-04-17T01:26:14.752Z,2.03
2023-04-17T01:28:44.367Z,1.77
2023-04-17T01:31:16.816Z,1.93
2023-04-17T01:33:45.087Z,2.13
2023-04-17T01:36:13.381Z,1.80
2023-04-17T01:38:41.661Z,1.87
2023-04-17T01:41:10.650Z,1.60
2023-04-17T01:43:42.224Z,1.30
2023-04-17T01:46:12.094Z,1.70
2023-04-17T01:48:40.681Z,1.60
2023-04-17T01:51:09.044Z,1.93
2023-04-17T01:53:37.650Z,2.30
2023-04-17T01:56:05.951Z,1.63
2023-04-17T01:58:34.236Z,1.53
2023-04-17T02:01:02.506Z,1.60
2023-04-17T02:03:32.561Z,1.90
2023-04-17T02:06:00.864Z,1.60
2023-04-17T02:08:29.678Z,1.53
2023-04-17T02:10:57.911Z,1.63
2023-04-17T02:13:26.247Z,1.50
2023-04-17T02:15:54.900Z,1.93
2023-04-17T02:18:23.173Z,1.60
2023-04-17T02:20:52.791Z,1.70
2023-04-17T02:23:21.274Z,1.53
2023-04-17T02:25:49.525Z,1.63
2023-04-17T02:28:17.792Z,2.30
2023-04-17T02:30:46.196Z,2.00
2023-04-17T02:33:14.586Z,1.97
2023-04-17T02:35:42.860Z,1.50
2023-04-17T02:38:13.828Z,1.73
2023-04-17T02:40:42.106Z,1.67
2023-04-17T02:43:10.351Z,1.77
2023-04-17T02:45:38.613Z,1.93
2023-04-17T02:48:07.162Z,1.03
2023-04-17T02:50:35.729Z,1.87
2023-04-17T02:53:03.986Z,1.63
2023-04-17T02:55:33.604Z,1.60
2023-04-17T02:58:01.878Z,1.50
2023-04-17T03:00:30.317Z,1.50
2023-04-17T03:02:58.700Z,1.73
2023-04-17T03:05:30.401Z,1.97
2023-04-17T03:07:59.354Z,1.30
2023-04-17T03:10:27.604Z,1.43
2023-04-17T03:12:57.280Z,1.40
2023-04-17T03:15:25.619Z,1.60
2023-04-17T03:17:53.906Z,1.87
2023-04-17T03:20:22.197Z,1.97
2023-04-17T03:22:50.541Z,1.63
2023-04-17T03:25:18.798Z,1.80
2023-04-17T03:27:47.112Z,1.60
2023-04-17T03:30:16.777Z,1.43
2023-04-17T03:32:45.058Z,1.57
2023-04-17T03:35:13.374Z,1.30
2023-04-17T03:37:41.630Z,1.30
2023-04-17T03:40:10.347Z,1.57
2023-04-17T03:42:38.620Z,1.97
2023-04-17T03:45:07.333Z,2.07
2023-04-17T03:47:37.017Z,1.80
2023-04-17T03:50:05.449Z,1.33
2023-04-17T03:52:33.653Z,1.37
2023-04-17T03:55:02.235Z,1.53
2023-04-17T03:57:30.489Z,1.70
2023-04-17T03:59:58.737Z,2.10
2023-04-17T04:02:27.108Z,1.47
2023-04-17T04:04:57.013Z,1.70
2023-04-17T04:07:25.558Z,1.60
2023-04-17T04:09:53.830Z,1.80
2023-04-17T04:12:22.983Z,1.70
2023-04-17T04:14:51.368Z,1.90
2023-04-17T04:17:19.621Z,1.77
2023-04-17T04:19:47.986Z,1.40
2023-04-17T04:22:18.530Z,1.87
2023-04-17T04:24:47.323Z,1.77
2023-04-17T04:27:18.159Z,1.40
2023-04-17T04:29:49.556Z,1.73
2023-04-17T04:32:17.889Z,1.50
2023-04-17T04:34:46.164Z,1.43
2023-04-17T04:37:15.935Z,1.70
2023-04-17T04:39:47.255Z,1.53
2023-04-17T04:42:21.977Z,1.83
2023-04-17T04:44:50.515Z,1.53
2023-04-17T04:47:20.034Z,1.47
2023-04-17T04:49:48.326Z,1.43
2023-04-17T04:52:16.537Z,1.43
2023-04-17T04:54:46.145Z,1.07
2023-04-17T04:57:14.393Z,1.70
2023-04-17T04:59:42.615Z,1.37
2023-04-17T05:02:10.944Z,1.53
2023-04-17T05:04:39.420Z,1.60
2023-04-17T05:07:08.047Z,1.77
2023-04-17T05:09:36.684Z,1.47
2023-04-17T05:12:06.415Z,1.20
2023-04-17T05:14:34.685Z,1.57
2023-04-17T05:17:02.900Z,1.67
2023-04-17T05:19:31.279Z,1.10
2023-04-17T05:21:59.534Z,1.40
2023-04-17T05:24:27.832Z,1.67
2023-04-17T05:26:57.094Z,1.47
2023-04-17T05:29:27.393Z,1.27
2023-04-17T05:31:55.650Z,1.10
2023-04-17T05:34:23.973Z,1.30
2023-04-17T05:36:52.237Z,1.53
2023-04-17T05:39:20.849Z,1.50
2023-04-17T05:41:49.367Z,1.37
2023-04-17T05:44:17.604Z,1.20
2023-04-17T05:46:47.189Z,1.37
2023-04-17T05:49:15.484Z,1.10
2023-04-17T05:51:43.723Z,1.40
2023-04-17T05:54:11.963Z,1.57
2023-04-17T05:56:40.321Z,1.30
2023-04-17T05:59:08.595Z,1.20
2023-04-17T06:01:36.891Z,1.63
2023-04-17T06:04:06.868Z,1.50
2023-04-17T06:06:35.470Z,1.27
2023-04-17T06:09:05.878Z,1.20
2023-04-17T06:11:34.127Z,1.30
2023-04-17T06:14:02.385Z,1.50
2023-04-17T06:16:30.856Z,1.10
2023-04-17T06:18:59.163Z,1.50
2023-04-17T06:21:28.855Z,1.27
2023-04-17T06:23:57.148Z,1.67
2023-04-17T06:26:25.594Z,1.30
2023-04-17T06:28:54.770Z,1.77
2023-04-17T06:31:23.277Z,1.27
2023-04-17T06:33:51.623Z,1.33
2023-04-17T06:36:19.837Z,1.23
2023-04-17T06:38:49.429Z,1.57
2023-04-17T06:41:17.730Z,0.97
2023-04-17T06:43:45.997Z,1.43
2023-04-17T06:46:14.311Z,1.50
2023-04-17T06:48:42.582Z,1.40
2023-04-17T06:51:10.962Z,1.17
2023-04-17T06:53:39.189Z,1.17
2023-04-17T06:56:08.890Z,1.27
2023-04-17T06:58:43.868Z,1.40
2023-04-17T07:01:12.341Z,1.83
2023-04-17T07:03:41.116Z,1.37
2023-04-17T07:06:09.698Z,1.60
2023-04-17T07:08:37.937Z,1.27
2023-04-17T07:11:06.190Z,1.67
2023-04-17T07:13:35.778Z,1.07
2023-04-17T07:16:04.231Z,1.63
2023-04-17T07:18:32.536Z,1.67
2023-04-17T07:21:01.357Z,1.33
2023-04-17T07:23:29.623Z,1.67
2023-04-17T07:25:57.848Z,1.30
2023-04-17T07:28:26.129Z,1.13
2023-04-17T07:30:58.162Z,1.03
2023-04-17T07:33:26.490Z,1.33
2023-04-17T07:35:54.748Z,1.07
2023-04-17T07:38:23.088Z,1.13
2023-04-17T07:40:51.397Z,1.57
2023-04-17T07:43:19.649Z,1.13
2023-04-17T07:45:48.942Z,1.00
2023-04-17T07:48:20.144Z,1.00
2023-04-17T07:50:48.400Z,1.53
2023-04-17T07:53:16.624Z,1.27
2023-04-17T07:55:44.924Z,1.40
2023-04-17T07:58:13.993Z,1.40
2023-04-17T08:00:42.855Z,1.30
2023-04-17T08:03:11.314Z,1.30
2023-04-17T08:05:41.106Z,1.23
2023-04-17T08:08:09.328Z,1.67
2023-04-17T08:10:37.556Z,1.00
2023-04-17T08:13:05.792Z,1.30
2023-04-17T08:15:34.097Z,2.23
2023-04-17T08:18:02.407Z,1.10
2023-04-17T08:20:30.713Z,1.17
2023-04-17T08:23:00.328Z,1.40
2023-04-17T08:25:28.575Z,1.77
2023-04-17T08:27:56.907Z,1.87
2023-04-17T08:30:25.500Z,1.30
2023-04-17T08:32:55.531Z,1.73
2023-04-17T08:35:23.923Z,1.60
2023-04-17T08:37:52.185Z,1.80
2023-04-17T08:40:23.833Z,1.50
2023-04-17T08:42:52.177Z,1.00
2023-04-17T08:45:20.972Z,1.87
2023-04-17T08:47:49.244Z,1.60
2023-04-17T08:50:17.880Z,1.33
2023-04-17T08:52:46.536Z,1.57
2023-04-17T08:55:15.474Z,1.03
2023-04-17T08:57:57.640Z,1.20
2023-04-17T09:00:26.386Z,1.20
2023-04-17T09:02:55.189Z,1.80
2023-04-17T09:05:23.596Z,1.80
2023-04-17T09:07:51.955Z,1.70
2023-04-17T09:10:20.581Z,1.57
2023-04-17T09:13:02.000Z,1.23
2023-04-17T09:15:30.394Z,1.63
2023-04-17T09:17:58.646Z,1.10
2023-04-17T09:20:27.548Z,1.03
2023-04-17T09:23:05.384Z,1.20
2023-04-17T09:25:33.715Z,1.57
2023-04-17T09:28:16.038Z,1.00
2023-04-17T09:30:44.365Z,1.30
2023-04-17T09:33:13.006Z,1.63
2023-04-17T09:35:41.276Z,0.90
2023-04-17T09:38:09.518Z,1.17
2023-04-17T09:40:38.373Z,1.10
2023-04-17T09:43:09.460Z,1.27
2023-04-17T09:45:42.491Z,1.07
2023-04-17T09:48:11.549Z,2.03
2023-04-17T09:50:39.899Z,1.17
2023-04-17T09:53:08.428Z,1.27
2023-04-17T09:55:38.042Z,1.07
2023-04-17T09:58:07.440Z,1.10
2023-04-17T10:00:36.793Z,0.90
2023-04-17T10:03:06.756Z,1.43
2023-04-17T10:05:35.476Z,1.40
2023-04-17T10:08:04.509Z,1.30
2023-04-17T10:10:33.964Z,1.10
2023-04-17T10:13:03.285Z,1.47
2023-04-17T10:15:31.543Z,1.60
2023-04-17T10:18:14.705Z,1.50
2023-04-17T10:20:44.743Z,1.30
2023-04-17T10:23:31.941Z,1.80
2023-04-17T10:26:19.212Z,1.83
2023-04-17T10:28:50.665Z,1.57
2023-04-17T10:31:18.927Z,2.03
2023-04-17T10:33:50.600Z,2.13
2023-04-17T10:36:33.696Z,1.20
2023-04-17T10:39:14.852Z,1.90
2023-04-17T10:41:58.089Z,2.20
2023-04-17T10:44:26.434Z,1.77
2023-04-17T10:46:54.651Z,1.63
2023-04-17T10:49:23.118Z,1.83
2023-04-17T10:51:52.485Z,1.87
2023-04-17T10:54:22.093Z,1.77
2023-04-17T10:56:50.395Z,1.50
2023-04-17T10:59:18.867Z,1.50
2023-04-17T11:02:04.072Z,1.30
2023-04-17T11:04:33.836Z,1.73
2023-04-17T11:07:02.564Z,1.67
2023-04-17T11:09:32.214Z,1.53
2023-04-17T11:12:01.452Z,1.57
2023-04-17T11:14:30.492Z,1.90
2023-04-17T11:16:58.891Z,1.80
2023-04-17T11:19:27.297Z,1.60
2023-04-17T11:21:57.265Z,1.73
2023-04-17T11:24:25.986Z,1.50
2023-04-17T11:26:56.165Z,1.50
2023-04-17T11:29:25.273Z,1.57
2023-04-17T11:31:53.940Z,1.50
2023-04-17T11:34:22.308Z,1.67
2023-04-17T11:36:51.161Z,1.57
2023-04-17T11:39:19.837Z,1.50
2023-04-17T11:41:48.460Z,1.47
2023-04-17T11:44:18.682Z,1.60
2023-04-17T11:46:50.531Z,1.57
2023-04-17T11:49:18.810Z,1.83
2023-04-17T11:51:47.258Z,2.27
2023-04-17T11:54:21.735Z,1.53
2023-04-17T11:56:59.362Z,1.40
2023-04-17T11:59:32.674Z,1.80
2023-04-17T12:02:01.900Z,1.80
2023-04-17T12:04:33.658Z,1.90
2023-04-17T12:07:02.553Z,1.63
2023-04-17T12:09:32.230Z,1.87
2023-04-17T12:12:01.306Z,1.40
2023-04-17T12:14:29.585Z,1.37
2023-04-17T12:16:59.263Z,1.80
2023-04-17T12:19:29.319Z,1.60
2023-04-17T12:21:59.089Z,1.33
2023-04-17T12:24:27.532Z,1.67
2023-04-17T12:26:56.188Z,1.80
2023-04-17T12:29:40.409Z,1.73
2023-04-17T12:32:13.258Z,1.17
2023-04-17T12:34:41.586Z,1.60
2023-04-17T12:37:10.082Z,1.50
2023-04-17T12:39:38.402Z,1.87
2023-04-17T12:42:06.753Z,1.57
2023-04-17T12:44:35.002Z,1.73
2023-04-17T12:47:03.394Z,2.10
2023-04-17T12:49:33.034Z,1.80
2023-04-17T12:52:03.630Z,1.43
2023-04-17T12:54:33.025Z,1.90
2023-04-17T12:57:01.747Z,1.30
2023-04-17T12:59:29.996Z,1.43
2023-04-17T13:01:58.405Z,1.17
2023-04-17T13:04:26.825Z,1.50
2023-04-17T13:06:56.541Z,1.90
2023-04-17T13:09:24.810Z,1.27
2023-04-17T13:11:53.050Z,1.17
2023-04-17T13:14:21.359Z,1.47
2023-04-17T13:16:50.716Z,1.60
2023-04-17T13:19:19.885Z,1.70
2023-04-17T13:21:48.162Z,1.40
2023-04-17T13:24:17.931Z,1.50
2023-04-17T13:26:46.266Z,1.80
2023-04-17T13:29:17.062Z,1.63
2023-04-17T13:31:46.861Z,1.60
2023-04-17T13:34:15.118Z,1.73
2023-04-17T13:36:44.914Z,1.23
2023-04-17T13:39:13.549Z,1.40
2023-04-17T13:41:43.576Z,1.70
2023-04-17T13:44:12.455Z,1.53
2023-04-17T13:46:40.810Z,1.20
2023-04-17T13:49:09.075Z,1.07
2023-04-17T13:51:37.389Z,1.33
2023-04-17T13:54:06.564Z,1.97
2023-04-17T13:56:34.809Z,1.37
2023-04-17T13:59:04.461Z,1.47
2023-04-17T14:01:32.846Z,1.47
2023-04-17T14:04:01.494Z,1.20
2023-04-17T14:06:29.971Z,0.93
2023-04-17T14:08:58.236Z,2.17
2023-04-17T14:11:26.549Z,1.80
2023-04-17T14:13:54.847Z,1.30
2023-04-17T14:16:24.546Z,1.17
2023-04-17T14:18:52.953Z,1.40
2023-04-17T14:21:22.500Z,1.27
2023-04-17T14:23:51.747Z,1.07
2023-04-17T14:26:20.016Z,1.77
2023-04-17T14:28:48.267Z,1.50
2023-04-17T14:31:16.539Z,1.30
2023-04-17T14:33:46.219Z,1.10
2023-04-17T14:36:14.496Z,1.60
2023-04-17T14:38:42.806Z,1.40
2023-04-17T14:41:11.168Z,1.43
2023-04-17T14:43:39.443Z,1.50
2023-04-17T14:46:07.794Z,1.23
2023-04-17T14:48:44.176Z,1.50
2023-04-17T14:53:50.366Z,1.60
2023-04-17T14:56:18.659Z,1.30
2023-04-17T14:58:46.912Z,1.20
2023-04-17T15:01:15.241Z,1.50
2023-04-17T15:03:45.515Z,1.60
2023-04-17T15:06:16.428Z,1.03
2023-04-17T15:08:46.508Z,1.17
2023-04-17T15:11:14.737Z,1.83
2023-04-17T15:13:43.019Z,1.27
2023-04-17T15:16:11.410Z,1.47
2023-04-17T15:18:40.212Z,1.20
2023-04-17T15:21:08.710Z,1.47
2023-04-17T15:23:36.932Z,1.57
2023-04-17T15:26:06.741Z,1.53
2023-04-17T15:28:35.062Z,1.87
2023-04-17T15:31:03.334Z,1.80
2023-04-17T15:33:31.646Z,1.67
2023-04-17T15:36:00.014Z,1.40
2023-04-17T15:38:28.452Z,1.50
2023-04-17T15:40:56.789Z,1.67
2023-04-17T15:43:26.917Z,1.27
2023-04-17T15:45:55.965Z,1.63
2023-04-17T15:48:24.376Z,1.27
2023-04-17T15:50:52.680Z,1.70
2023-04-17T15:53:21.080Z,1.27
2023-04-17T15:55:49.314Z,1.30
2023-04-17T15:58:17.625Z,1.60
2023-04-17T16:00:47.248Z,1.20
2023-04-17T16:03:15.901Z,1.47
2023-04-17T16:05:44.224Z,1.33
2023-04-17T16:08:12.505Z,1.60
2023-04-17T16:10:40.791Z,1.27
2023-04-17T16:13:09.104Z,1.63
2023-04-17T16:15:37.524Z,1.70
2023-04-17T16:18:07.982Z,1.70
2023-04-17T16:20:36.306Z,1.67
2023-04-17T16:23:04.582Z,1.10
2023-04-17T16:25:32.830Z,1.13
2023-04-17T16:28:01.119Z,1.30
2023-04-17T16:30:29.369Z,1.50
2023-04-17T16:32:57.665Z,1.03
2023-04-17T16:35:27.864Z,1.67
2023-04-17T16:37:56.104Z,1.70
2023-04-17T16:40:26.543Z,1.60
2023-04-17T16:42:54.939Z,2.23
2023-04-17T16:45:23.335Z,4.77
2023-04-17T16:47:51.733Z,6.33
2023-04-17T16:50:20.298Z,3.47
2023-04-17T16:52:51.538Z,4.60
2023-04-17T16:55:19.803Z,3.27
2023-04-17T16:57:48.112Z,5.23
2023-04-17T17:00:16.621Z,4.13
2023-04-17T17:02:45.032Z,4.50
2023-04-17T17:05:15.401Z,4.37
2023-04-17T17:07:43.652Z,4.10
2023-04-17T17:10:13.520Z,3.93
2023-04-17T17:12:41.787Z,2.73
2023-04-17T17:15:10.285Z,2.93
2023-04-17T17:17:38.589Z,2.50
2023-04-17T17:20:07.877Z,2.80
2023-04-17T17:22:36.159Z,3.93
2023-04-17T17:25:04.453Z,3.53
2023-04-17T17:27:34.235Z,3.23
2023-04-17T17:30:02.508Z,3.10
2023-04-17T17:32:30.819Z,3.13
2023-04-17T17:34:59.518Z,2.40
2023-04-17T17:37:27.788Z,2.63
2023-04-17T17:39:56.039Z,2.40
2023-04-17T17:42:24.460Z,2.73
2023-04-17T17:44:54.254Z,2.40
2023-04-17T17:47:22.643Z,2.17
2023-04-17T17:49:50.965Z,2.63
2023-04-17T17:52:19.232Z,2.17
2023-04-17T17:54:47.488Z,2.13
2023-04-17T17:57:15.909Z,2.47
2023-04-17T17:59:44.921Z,2.10
2023-04-17T18:02:14.695Z,2.40
2023-04-17T18:04:43.464Z,2.10
2023-04-17T18:07:11.825Z,2.23
2023-04-17T18:09:40.106Z,2.67
2023-04-17T18:12:08.585Z,2.20
2023-04-17T18:14:36.872Z,2.13
2023-04-17T18:17:05.134Z,2.30
2023-04-17T18:19:40.804Z,2.10
2023-04-17T18:22:09.231Z,2.93
2023-04-17T18:24:37.556Z,2.57
2023-04-17T18:27:06.744Z,2.43
2023-04-17T18:29:35.059Z,2.30
2023-04-17T18:32:03.714Z,2.90
2023-04-17T18:34:32.233Z,2.53
2023-04-17T18:37:01.857Z,2.40
2023-04-17T18:39:30.361Z,2.43
2023-04-17T18:41:59.721Z,2.10
2023-04-17T18:44:27.994Z,2.90
2023-04-17T18:46:56.257Z,2.70
2023-04-17T18:49:24.561Z,2.90
2023-04-17T18:51:52.815Z,3.03
2023-04-17T18:54:23.073Z,2.73
2023-04-17T18:56:51.685Z,2.53
2023-04-17T18:59:21.295Z,2.20
2023-04-17T19:01:49.579Z,2.63
2023-04-17T19:04:18.133Z,2.33
2023-04-17T19:06:46.375Z,2.43
2023-04-17T19:09:14.630Z,3.07
2023-04-17T19:11:44.603Z,1.97
2023-04-17T19:14:13.030Z,1.93
2023-04-17T19:16:41.458Z,2.20
2023-04-17T19:19:11.370Z,2.33
2023-04-17T19:21:39.762Z,2.40
2023-04-17T19:24:08.534Z,1.80
2023-04-17T19:26:37.912Z,1.60
2023-04-17T19:29:07.545Z,2.77
2023-04-17T19:31:35.866Z,1.83
2023-04-17T19:34:04.451Z,1.77
2023-04-17T19:36:32.711Z,1.97
2023-04-17T19:39:00.997Z,1.80
2023-04-17T19:41:29.813Z,2.30
2023-04-17T19:43:58.182Z,1.80
2023-04-17T19:46:28.726Z,1.73
2023-04-17T19:48:57.252Z,1.73
2023-04-17T19:51:26.285Z,1.90
2023-04-17T19:53:54.525Z,1.70
2023-04-17T19:56:22.923Z,2.27
2023-04-17T19:58:51.170Z,1.90
2023-04-17T20:01:19.455Z,2.13
2023-04-17T20:03:49.558Z,1.97
2023-04-17T20:06:17.840Z,2.73
2023-04-17T20:08:46.135Z,2.00
2023-04-17T20:11:14.545Z,2.03
2023-04-17T20:13:42.794Z,1.90
2023-04-17T20:16:11.036Z,2.03
2023-04-17T20:18:40.060Z,1.90
2023-04-17T20:21:09.660Z,2.23
2023-04-17T20:23:37.907Z,2.23
2023-04-17T20:26:06.351Z,2.30
2023-04-17T20:28:34.643Z,1.60
2023-04-17T20:31:03.364Z,1.90
2023-04-17T20:33:31.769Z,2.43
2023-04-17T20:36:00.040Z,2.10
2023-04-17T20:38:29.626Z,1.20
2023-04-17T20:40:57.916Z,2.40
2023-04-17T20:43:26.321Z,1.93
2023-04-17T20:45:54.610Z,1.83
2023-04-17T20:48:23.488Z,2.00
2023-04-17T20:50:51.775Z,2.13
2023-04-17T20:53:20.055Z,1.83
2023-04-17T20:55:49.693Z,2.50
2023-04-17T20:58:17.946Z,1.67
2023-04-17T21:00:58.360Z,2.33
2023-04-17T21:03:30.140Z,2.13
2023-04-17T21:05:58.603Z,2.23
2023-04-17T21:08:27.005Z,1.57
2023-04-17T21:10:56.648Z,2.20
2023-04-17T21:13:24.984Z,2.30
2023-04-17T21:15:53.239Z,1.70
2023-04-17T21:18:21.556Z,2.60
2023-04-17T21:20:49.806Z,2.33
2023-04-17T21:23:18.029Z,2.00
2023-04-17T21:25:46.288Z,2.50
2023-04-17T21:28:16.181Z,2.30
2023-04-17T21:30:44.428Z,2.00
2023-04-17T21:33:12.679Z,2.13
2023-04-17T21:35:40.937Z,2.20
2023-04-17T21:38:09.186Z,2.17
2023-04-17T21:40:37.430Z,2.63
2023-04-17T21:43:05.975Z,2.67
2023-04-17T21:45:35.644Z,2.07
2023-04-17T21:48:04.038Z,2.27
2023-04-17T21:50:32.368Z,2.37
2023-04-17T21:53:00.634Z,2.43
2023-04-17T21:55:28.943Z,2.70
2023-04-17T21:57:57.206Z,2.33
2023-04-17T22:00:25.541Z,2.53
2023-04-17T22:02:55.238Z,2.07
2023-04-17T22:05:23.627Z,2.87
2023-04-17T22:07:55.309Z,2.53
2023-04-17T22:10:24.203Z,2.33
2023-04-17T22:12:52.542Z,2.70
2023-04-17T22:15:20.864Z,2.20
2023-04-17T22:17:49.278Z,2.30
2023-04-17T22:20:53.781Z,3.23
2023-04-17T22:23:58.373Z,2.60
2023-04-17T22:26:45.097Z,3.03
2023-04-17T22:29:31.902Z,2.30
2023-04-17T22:32:01.480Z,2.30
2023-04-17T22:34:48.211Z,2.40
2023-04-17T22:37:35.311Z,2.30
2023-04-17T22:40:22.301Z,2.20
2023-04-17T22:43:09.703Z,2.67
2023-04-17T22:45:38.134Z,2.20
2023-04-17T22:48:07.913Z,2.53
2023-04-17T22:50:37.720Z,2.73
2023-04-17T22:53:06.139Z,2.50
2023-04-17T22:55:34.367Z,2.60
2023-04-17T22:58:02.915Z,2.90
2023-04-17T23:00:31.553Z,2.57
2023-04-17T23:02:59.882Z,2.00
2023-04-17T23:05:29.632Z,3.20
2023-04-17T23:07:57.875Z,2.40
2023-04-17T23:10:26.201Z,1.97
2023-04-17T23:12:54.439Z,2.47
2023-04-17T23:15:22.842Z,2.20
2023-04-17T23:17:51.096Z,2.90
2023-04-17T23:20:20.276Z,2.70
2023-04-17T23:22:49.991Z,2.40
2023-04-17T23:25:18.490Z,2.67
2023-04-17T23:27:46.745Z,2.40
2023-04-17T23:30:15.286Z,2.30
2023-04-17T23:32:43.531Z,2.60
2023-04-17T23:35:11.918Z,2.10
2023-04-17T23:37:40.390Z,2.80
2023-04-17T23:40:10.861Z,1.90
2023-04-17T23:42:39.102Z,2.00
2023-04-17T23:45:07.827Z,2.00
2023-04-17T23:47:36.148Z,2.07
2023-04-17T23:50:05.384Z,1.90
2023-04-17T23:52:33.636Z,2.30
2023-04-17T23:55:02.854Z,2.17
2023-04-17T23:57:34.624Z,2.23
